Airport View

Enter AWOS ICAO identifier for current METAR.

ex. KFNL

KVTI 200040Z AUTO 09003KT 10SM OVC014 02/01 A3025 RMK AO2 T00200007

20 Oct 2020 00:35

Frequency: 120.075

Phone: 319-472-3122

Other Area AWOS: KIIB - KCID - KALO - KOLZ

TAF KCID 192320Z 2000/2024 08010KT P6SM SCT008 OVC060 TEMPO 2001/2002 SCT008 BKN014 FM200200 04004KT P6SM OVC040 FM201500 09010KT P6SM OVC025 PROB30 2019/2022 6SM -RA OVC020